Time;durP1;ratioP1;P1;durP2;ratioP2;P2;SDS_P1;SDS_P2;PMS_P1;PMS_P2;Temp;Humidity;BMP_temperature;BMP_pressure;BME280_temperature;BME280_humidity;BME280_pressure;Samples;Min_cycle;Max_cycle;Signal;HPM_P1;HPM_P2
2022/03/01 00:01:28;;;;;;;18.23;7.40;;;;;;;2.72;78.85;100814.19;5028262;28;20062;-73
2022/03/01 00:03:54;;;;;;;40.60;12.27;;;;;;;2.91;78.57;100816.59;5029435;28;20049;-73
2022/03/01 00:06:19;;;;;;;23.43;8.27;;;;;;;2.84;78.89;100816.09;5028510;28;20223;-73
2022/03/01 00:08:45;;;;;;;10.43;5.90;;;;;;;2.99;78.57;100821.41;5029687;28;20048;-73
2022/03/01 00:11:11;;;;;;;20.27;8.90;;;;;;;3.01;78.33;100819.53;5019435;28;20036;-73
2022/03/01 00:13:36;;;;;;;21.83;9.57;;;;;;;2.96;78.63;100824.19;5027469;28;20659;-73
2022/03/01 00:16:02;;;;;;;29.23;10.10;;;;;;;2.78;79.44;100815.59;5030226;28;20231;-73
2022/03/01 00:18:28;;;;;;;24.60;11.13;;;;;;;2.85;78.79;100815.19;5027745;28;20300;-73
2022/03/01 00:20:53;;;;;;;21.33;10.17;;;;;;;2.85;79.12;100799.47;5029732;28;20045;-73
2022/03/01 00:23:19;;;;;;;26.87;10.03;;;;;;;2.96;78.90;100816.34;5027712;28;20133;-73
2022/03/01 00:25:44;;;;;;;33.40;12.73;;;;;;;3.04;78.74;100809.72;5029809;28;20219;-73
2022/03/01 00:28:10;;;;;;;41.20;13.50;;;;;;;3.06;78.22;100805.25;5028793;28;20253;-73
2022/03/01 00:30:35;;;;;;;13.77;7.20;;;;;;;2.96;78.77;100798.88;5010203;28;20266;-73
2022/03/01 00:33:00;;;;;;;9.40;5.60;;;;;;;3.02;78.85;100801.13;5024422;28;20193;-73
2022/03/01 00:35:26;;;;;;;10.43;6.47;;;;;;;3.06;78.02;100793.94;5029958;28;20029;-73
2022/03/01 00:37:51;;;;;;;13.13;6.47;;;;;;;3.19;77.51;100798.41;5011328;28;20080;-72
2022/03/01 00:40:17;;;;;;;18.83;7.67;;;;;;;3.21;77.14;100793.09;5022369;28;20067;-73
2022/03/01 00:42:42;;;;;;;20.57;8.73;;;;;;;3.31;76.08;100781.16;5030243;28;20479;-73
2022/03/01 00:45:08;;;;;;;18.17;8.03;;;;;;;3.41;76.52;100798.00;5027778;28;20034;-73
2022/03/01 00:47:34;;;;;;;10.30;6.00;;;;;;;3.33;76.30;100795.00;5028867;28;20041;-73
2022/03/01 00:49:59;;;;;;;11.67;6.73;;;;;;;3.15;76.85;100798.69;5025925;28;20037;-72
2022/03/01 00:52:25;;;;;;;7.83;5.23;;;;;;;3.03;77.88;100788.88;5029480;28;20044;-73
2022/03/01 00:54:50;;;;;;;7.93;4.73;;;;;;;3.03;77.93;100789.72;5028154;28;20045;-73
2022/03/01 00:57:15;;;;;;;10.27;5.40;;;;;;;2.96;77.72;100777.09;5011013;28;20029;-72
2022/03/01 00:59:41;;;;;;;6.33;4.40;;;;;;;2.87;79.03;100773.22;5027897;28;20091;-72
2022/03/01 01:02:06;;;;;;;6.17;3.83;;;;;;;2.80;79.24;100771.91;5029166;28;20450;-72
2022/03/01 01:04:32;;;;;;;6.57;4.27;;;;;;;2.83;79.98;100775.19;5026287;28;20040;-72
2022/03/01 01:06:57;;;;;;;7.20;4.53;;;;;;;2.89;79.40;100764.38;5029474;28;20037;-73
2022/03/01 01:09:23;;;;;;;12.43;5.80;;;;;;;2.95;78.33;100768.41;5027478;28;20048;-73
2022/03/01 01:11:48;;;;;;;14.73;7.17;;;;;;;2.78;79.02;100773.75;5027268;28;20043;-72
2022/03/01 01:14:14;;;;;;;8.60;5.37;;;;;;;2.69;78.96;100755.97;5027122;28;20041;-73
2022/03/01 01:16:39;;;;;;;8.47;5.20;;;;;;;3.02;77.94;100763.66;5028467;28;20029;-73
2022/03/01 01:19:05;;;;;;;11.87;5.60;;;;;;;2.80;77.64;100764.06;5024722;28;20025;-73
2022/03/01 01:22:39;;;;;;;11.73;6.60;;;;;;;2.50;78.86;100767.47;5028655;28;20243;-72
2022/03/01 01:24:15;;;;;;;14.83;7.13;;;;;;;2.17;80.99;100774.56;5028712;28;20085;-73
2022/03/01 01:26:41;;;;;;;9.03;6.23;;;;;;;2.02;82.48;100772.75;5026545;28;20033;-73
2022/03/01 01:29:06;;;;;;;11.57;6.67;;;;;;;1.86;83.80;100777.94;5029241;28;20045;-73
2022/03/01 01:31:32;;;;;;;11.63;6.53;;;;;;;1.88;84.25;100776.09;5028549;28;20037;-73
2022/03/01 01:33:57;;;;;;;13.43;7.40;;;;;;;1.94;84.05;100778.38;5028861;28;20056;-73
2022/03/01 01:36:25;;;;;;;13.37;6.83;;;;;;;1.93;84.00;100774.94;5028368;28;20035;-73
2022/03/01 01:38:51;;;;;;;12.40;7.57;;;;;;;1.83;83.98;100767.66;5027462;28;20216;-72
2022/03/01 01:41:17;;;;;;;14.67;7.67;;;;;;;1.93;83.56;100779.31;5034143;28;20264;-72
2022/03/01 01:43:42;;;;;;;12.10;7.20;;;;;;;1.88;83.55;100776.94;5028226;28;20144;-72
2022/03/01 01:46:08;;;;;;;15.43;7.50;;;;;;;1.89;83.37;100778.63;5027180;28;20026;-72
2022/03/01 01:48:33;;;;;;;22.80;10.30;;;;;;;1.94;83.22;100767.94;5009327;28;20040;-72
2022/03/01 01:50:58;;;;;;;23.37;11.43;;;;;;;2.21;82.44;100776.09;5028662;28;20442;-73
2022/03/01 01:53:24;;;;;;;19.60;10.10;;;;;;;2.30;82.69;100772.97;5026109;28;20044;-73
2022/03/01 01:55:49;;;;;;;17.97;9.13;;;;;;;2.45;81.91;100761.66;5027930;28;20068;-72
2022/03/01 01:58:16;;;;;;;17.67;9.30;;;;;;;2.68;81.72;100776.06;5026939;28;20045;-72
2022/03/01 02:00:41;;;;;;;16.20;9.30;;;;;;;2.77;81.03;100762.47;5026194;28;20049;-73
2022/03/01 02:03:07;;;;;;;16.70;9.37;;;;;;;3.00;79.72;100768.97;5027264;28;20041;-73
2022/03/01 02:05:32;;;;;;;18.23;9.07;;;;;;;2.92;79.98;100754.66;5026679;28;20037;-73
2022/03/01 02:07:58;;;;;;;15.90;8.57;;;;;;;3.24;78.40;100758.88;5027393;28;20041;-73
2022/03/01 02:10:23;;;;;;;19.07;9.50;;;;;;;3.31;77.99;100757.59;5027631;28;21222;-73
2022/03/01 02:12:49;;;;;;;20.40;10.33;;;;;;;3.37;77.76;100753.75;5026201;28;20030;-73
2022/03/01 02:15:15;;;;;;;20.17;9.90;;;;;;;3.38;77.54;100752.81;5027674;28;20033;-73
2022/03/01 02:17:42;;;;;;;17.80;9.40;;;;;;;3.35;77.61;100745.16;5026792;28;20315;-73
2022/03/01 02:20:21;;;;;;;21.40;10.70;;;;;;;3.41;77.01;100750.03;5027303;28;20061;-73
2022/03/01 02:22:53;;;;;;;30.13;13.57;;;;;;;3.41;77.30;100750.03;5025834;28;20223;-73
2022/03/01 02:25:19;;;;;;;20.20;9.83;;;;;;;3.42;76.76;100746.47;5027703;28;20033;-73
2022/03/01 02:27:44;;;;;;;17.27;9.30;;;;;;;3.45;77.18;100748.91;5026766;28;20109;-73
2022/03/01 02:30:10;;;;;;;18.17;10.23;;;;;;;3.46;77.32;100742.72;5026835;28;20038;-73
2022/03/01 02:32:37;;;;;;;28.20;12.00;;;;;;;3.52;76.29;100739.75;5027726;28;20060;-73
2022/03/01 02:35:04;;;;;;;26.57;11.93;;;;;;;3.47;76.78;100729.56;5030973;28;20046;-73
2022/03/01 02:37:29;;;;;;;27.47;12.43;;;;;;;3.49;76.96;100732.06;5029472;28;20512;-73
2022/03/01 02:39:56;;;;;;;18.80;10.23;;;;;;;3.44;76.37;100727.13;5031919;28;20084;-73
2022/03/01 02:42:22;;;;;;;18.03;10.57;;;;;;;3.27;76.60;100723.84;5030205;28;20034;-73
2022/03/01 02:44:49;;;;;;;17.77;9.77;;;;;;;3.10;77.15;100732.66;5031909;28;20044;-73
2022/03/01 02:47:15;;;;;;;16.17;9.20;;;;;;;2.71;78.84;100723.56;5029893;28;20075;-73
2022/03/01 02:49:41;;;;;;;17.20;10.10;;;;;;;2.72;79.36;100714.81;5031672;28;20076;-73
2022/03/01 02:52:07;;;;;;;28.53;11.50;;;;;;;2.51;79.70;100710.81;5028791;28;20038;-73
2022/03/01 02:54:32;;;;;;;182.70;39.13;;;;;;;2.93;78.82;100725.78;5033237;28;20065;-73
2022/03/01 02:57:01;;;;;;;116.33;26.80;;;;;;;3.18;77.86;100722.59;5029651;28;20068;-73
2022/03/01 02:59:27;;;;;;;30.70;12.67;;;;;;;3.14;77.94;100723.72;5030371;28;20037;-73
2022/03/01 03:01:53;;;;;;;17.53;9.77;;;;;;;3.11;78.14;100719.47;5031745;28;20046;-73
2022/03/01 03:04:18;;;;;;;23.23;9.77;;;;;;;3.07;78.13;100723.22;5029680;28;20029;-73
2022/03/01 03:06:44;;;;;;;20.30;10.00;;;;;;;2.88;78.89;100712.13;5013053;28;20103;-73
2022/03/01 03:09:09;;;;;;;17.70;9.30;;;;;;;2.87;79.18;100715.69;5030685;28;20040;-73
2022/03/01 03:11:35;;;;;;;16.23;9.30;;;;;;;3.04;78.91;100714.69;5030938;28;20029;-73
2022/03/01 03:14:00;;;;;;;37.73;15.47;;;;;;;2.93;78.99;100704.03;5029601;28;20044;-73
2022/03/01 03:16:27;;;;;;;31.70;14.43;;;;;;;2.71;79.79;100710.50;5031745;28;20422;-73
2022/03/01 03:18:52;;;;;;;24.87;12.20;;;;;;;2.48;80.75;100716.19;5028665;28;20092;-73
2022/03/01 03:21:18;;;;;;;23.10;11.73;;;;;;;2.68;80.42;100710.69;5029977;28;20029;-73
2022/03/01 03:23:43;;;;;;;29.57;13.87;;;;;;;2.72;80.13;100709.56;5028650;28;20049;-73
2022/03/01 03:26:09;;;;;;;21.83;12.37;;;;;;;2.75;79.98;100708.56;5030033;28;20026;-73
2022/03/01 03:28:34;;;;;;;26.90;13.27;;;;;;;2.81;79.79;100711.66;5029779;28;20038;-73
2022/03/01 03:31:00;;;;;;;26.33;12.93;;;;;;;2.77;79.47;100709.31;5028408;28;20247;-73
2022/03/01 03:33:25;;;;;;;38.13;14.80;;;;;;;2.82;78.84;100710.72;5030802;28;20038;-73
2022/03/01 03:35:50;;;;;;;42.90;17.57;;;;;;;2.77;79.69;100717.16;5010706;28;20018;-73
2022/03/01 03:38:16;;;;;;;30.40;13.93;;;;;;;2.80;79.47;100716.97;5038673;28;20037;-73
2022/03/01 03:40:42;;;;;;;30.67;14.07;;;;;;;3.07;78.86;100730.22;5012424;28;20383;-73
2022/03/01 03:43:07;;;;;;;37.20;16.00;;;;;;;2.80;79.62;100725.66;5026848;28;20044;-73
2022/03/01 03:45:33;;;;;;;40.00;17.33;;;;;;;2.46;80.87;100728.53;5029508;28;20038;-73
2022/03/01 03:47:58;;;;;;;40.97;17.40;;;;;;;2.41;81.22;100717.47;5028651;28;20037;-73
2022/03/01 03:50:23;;;;;;;30.27;14.63;;;;;;;2.37;81.68;100723.81;5030621;28;20029;-73
2022/03/01 03:52:49;;;;;;;30.37;13.70;;;;;;;2.39;81.67;100719.34;5029331;28;20072;-72
2022/03/01 03:55:15;;;;;;;22.63;12.20;;;;;;;2.43;81.74;100715.63;5028979;28;20126;-73
2022/03/01 03:57:40;;;;;;;16.87;10.53;;;;;;;2.61;81.29;100716.34;5029535;28;20033;-73
2022/03/01 04:00:15;;;;;;;16.90;9.57;;;;;;;2.41;81.99;100717.47;5030255;28;20844;-73
2022/03/01 04:02:40;;;;;;;15.10;9.53;;;;;;;2.51;80.83;100721.25;5028267;28;20029;-73
2022/03/01 04:05:06;;;;;;;18.23;11.03;;;;;;;2.38;81.17;100713.28;5030496;28;20049;-73
2022/03/01 04:07:32;;;;;;;18.50;10.30;;;;;;;2.38;81.27;100709.81;5037858;28;20037;-73
2022/03/01 04:09:57;;;;;;;14.10;8.97;;;;;;;2.28;81.16;100706.03;5029143;28;20232;-73
2022/03/01 04:12:23;;;;;;;16.43;9.20;;;;;;;2.36;81.55;100712.50;5029729;28;20079;-73
2022/03/01 04:14:48;;;;;;;18.97;8.27;;;;;;;2.24;82.05;100705.34;5030466;28;20045;-73
2022/03/01 04:17:13;;;;;;;16.07;8.80;;;;;;;2.26;81.62;100695.66;5027783;28;20044;-73
2022/03/01 04:19:39;;;;;;;15.47;7.57;;;;;;;2.30;81.60;100706.78;5030357;28;20100;-73
2022/03/01 04:22:04;;;;;;;14.60;8.13;;;;;;;2.30;80.95;100712.00;5029309;28;20112;-73
2022/03/01 04:24:30;;;;;;;17.53;9.67;;;;;;;2.30;81.01;100705.00;5028659;28;20358;-73
2022/03/01 04:26:55;;;;;;;17.20;8.50;;;;;;;1.96;82.01;100702.56;5028120;28;20083;-73
2022/03/01 04:29:21;;;;;;;19.70;9.20;;;;;;;2.39;81.45;100704.50;5011419;28;20041;-73
2022/03/01 04:31:46;;;;;;;16.93;9.33;;;;;;;2.29;80.95;100705.09;5026160;28;20029;-73
2022/03/01 04:34:12;;;;;;;32.70;13.13;;;;;;;2.10;81.89;100708.75;5030515;28;20381;-73
2022/03/01 04:36:38;;;;;;;20.93;10.20;;;;;;;2.53;80.29;100707.16;5027953;28;20088;-73
2022/03/01 04:39:04;;;;;;;18.57;9.33;;;;;;;2.68;79.09;100702.84;5029555;28;20192;-73
2022/03/01 04:41:29;;;;;;;14.20;8.53;;;;;;;2.58;78.99;100678.16;5030067;28;20598;-73
2022/03/01 04:43:54;;;;;;;35.03;15.23;;;;;;;2.91;78.15;100711.97;5027511;28;20038;-73
2022/03/01 04:46:20;;;;;;;54.70;16.53;;;;;;;2.91;78.44;100705.88;5029245;28;20267;-73
2022/03/01 04:48:46;;;;;;;43.33;15.63;;;;;;;2.83;78.10;100708.94;5027886;28;20033;-73
2022/03/01 04:51:12;;;;;;;44.13;14.93;;;;;;;2.38;78.63;100710.66;5027915;28;20034;-73
2022/03/01 04:53:37;;;;;;;73.77;19.57;;;;;;;2.54;78.83;100710.63;5027947;28;20113;-73
2022/03/01 04:56:03;;;;;;;23.23;12.23;;;;;;;2.82;77.52;100712.50;5025453;28;20298;-73
2022/03/01 04:58:29;;;;;;;19.87;10.07;;;;;;;2.78;77.98;100716.22;5026838;28;20108;-73
2022/03/01 05:00:55;;;;;;;13.70;8.03;;;;;;;2.82;77.60;100715.94;5027521;28;20045;-73
2022/03/01 05:03:21;;;;;;;30.37;11.87;;;;;;;2.98;76.91;100710.66;5026986;28;20054;-73
2022/03/01 05:05:47;;;;;;;21.43;8.80;;;;;;;2.78;77.70;100718.84;5028747;28;20250;-73
2022/03/01 05:08:12;;;;;;;29.47;13.10;;;;;;;2.82;77.56;100720.34;5028563;28;20037;-73
2022/03/01 05:10:37;;;;;;;18.83;10.93;;;;;;;2.97;77.41;100708.97;5009480;28;20033;-73
2022/03/01 05:13:03;;;;;;;21.63;11.17;;;;;;;3.12;75.69;100720.31;5028394;28;20104;-73
2022/03/01 05:15:29;;;;;;;15.30;9.40;;;;;;;3.10;76.22;100733.50;5027429;28;20152;-73
2022/03/01 05:17:56;;;;;;;17.27;10.33;;;;;;;2.94;76.38;100732.72;5028436;28;20315;-72
2022/03/01 05:20:23;;;;;;;22.20;11.50;;;;;;;3.05;77.21;100729.47;5028772;28;20029;-73
2022/03/01 05:22:49;;;;;;;36.97;15.73;;;;;;;2.90;77.72;100728.59;5025547;28;20040;-73
2022/03/01 05:25:16;;;;;;;42.93;14.87;;;;;;;3.02;77.44;100737.50;5027754;28;20022;-72
2022/03/01 05:27:43;;;;;;;28.30;10.83;;;;;;;3.26;76.31;100741.31;5028140;28;20201;-72
2022/03/01 05:30:12;;;;;;;16.33;9.67;;;;;;;3.18;77.08;100748.78;5026927;28;20089;-73
2022/03/01 05:32:40;;;;;;;12.67;8.23;;;;;;;3.34;76.43;100760.03;5027667;28;20048;-73
2022/03/01 05:35:09;;;;;;;16.23;9.50;;;;;;;3.34;76.95;100756.56;5028014;28;20062;-72
2022/03/01 05:37:36;;;;;;;15.77;8.07;;;;;;;3.36;76.21;100758.16;5026900;28;20030;-73
2022/03/01 05:40:01;;;;;;;13.27;8.40;;;;;;;3.18;77.08;100754.00;5027739;28;20113;-72
2022/03/01 05:42:27;;;;;;;15.60;9.60;;;;;;;3.11;77.01;100756.09;5027304;28;20041;-73
2022/03/01 05:44:52;;;;;;;16.57;9.83;;;;;;;3.23;76.95;100754.56;5028848;28;20072;-73
2022/03/01 05:47:17;;;;;;;14.70;9.43;;;;;;;3.14;77.81;100762.97;5028136;28;20394;-72
2022/03/01 05:49:43;;;;;;;12.70;8.03;;;;;;;3.11;77.04;100761.34;5026822;28;20076;-73
2022/03/01 05:52:08;;;;;;;19.87;9.30;;;;;;;3.18;76.75;100765.31;5028026;28;20100;-73
2022/03/01 05:54:34;;;;;;;34.90;13.90;;;;;;;2.65;79.64;100768.38;5027613;28;20102;-73
2022/03/01 05:57:00;;;;;;;22.87;12.50;;;;;;;2.46;80.48;100765.97;5026362;28;20049;-73
2022/03/01 05:59:25;;;;;;;20.73;11.37;;;;;;;2.28;81.15;100761.75;5027458;28;20041;-73
2022/03/01 06:01:51;;;;;;;22.27;11.83;;;;;;;2.36;81.62;100771.78;5026862;28;20235;-73
2022/03/01 06:04:17;;;;;;;25.73;11.40;;;;;;;2.30;82.33;100767.75;5028157;28;20351;-73
2022/03/01 06:06:42;;;;;;;33.77;13.33;;;;;;;2.29;81.46;100776.50;5027797;28;20147;-73
2022/03/01 06:09:07;;;;;;;28.33;12.63;;;;;;;2.62;81.56;100780.78;5029160;28;20041;-73
2022/03/01 06:11:33;;;;;;;95.57;22.73;;;;;;;3.00;79.43;100784.69;5030859;28;20144;-73
2022/03/01 06:13:58;;;;;;;25.90;11.50;;;;;;;3.29;77.66;100792.63;5031114;28;20104;-73
2022/03/01 06:16:24;;;;;;;45.77;14.40;;;;;;;3.09;77.59;100778.06;5031397;28;20037;-73
2022/03/01 06:18:49;;;;;;;70.37;17.23;;;;;;;3.13;77.79;100785.69;5013458;28;20037;-73
2022/03/01 06:21:15;;;;;;;36.40;11.93;;;;;;;2.93;77.40;100778.13;5030965;28;20620;-73
2022/03/01 06:23:40;;;;;;;32.27;11.77;;;;;;;3.33;75.99;100784.50;5031102;28;20056;-73
2022/03/01 06:26:07;;;;;;;24.43;11.07;;;;;;;3.41;75.95;100790.13;5030060;28;20044;-73
2022/03/01 06:28:32;;;;;;;23.63;11.43;;;;;;;3.48;75.87;100780.16;5032095;28;20200;-73
2022/03/01 06:30:58;;;;;;;19.97;10.53;;;;;;;3.61;75.53;100791.56;5029167;28;20036;-73
2022/03/01 06:33:23;;;;;;;21.67;12.17;;;;;;;3.38;76.09;100794.72;5027720;28;20030;-73
2022/03/01 06:35:49;;;;;;;18.73;11.03;;;;;;;3.42;76.35;100794.44;5033239;28;20036;-73
2022/03/01 06:38:14;;;;;;;15.07;9.43;;;;;;;3.41;76.42;100790.13;5013015;28;20026;-73
2022/03/01 06:40:40;;;;;;;21.80;9.33;;;;;;;3.59;75.15;100782.97;5030187;28;20021;-73
2022/03/01 06:43:05;;;;;;;14.97;8.97;;;;;;;3.32;74.81;100792.47;5032254;28;20105;-73
2022/03/01 06:45:32;;;;;;;20.07;10.53;;;;;;;3.52;74.90;100800.81;5011707;28;20071;-73
2022/03/01 06:47:58;;;;;;;69.87;16.37;;;;;;;3.47;74.35;100804.63;5030470;28;20033;-73
2022/03/01 06:50:25;;;;;;;82.17;19.93;;;;;;;3.66;74.02;100793.91;5031670;28;20060;-73
2022/03/01 06:52:50;;;;;;;21.53;10.00;;;;;;;3.69;74.37;100791.09;5029948;28;20025;-73
2022/03/01 06:55:16;;;;;;;23.90;11.43;;;;;;;3.84;74.44;100790.16;5037775;28;20030;-74
2022/03/01 06:57:42;;;;;;;19.90;10.20;;;;;;;4.14;74.25;100800.53;5030847;28;20044;-73
2022/03/01 07:00:09;;;;;;;163.17;49.80;;;;;;;4.24;73.15;100798.22;5029405;28;20046;-73
2022/03/01 07:02:38;;;;;;;181.33;56.47;;;;;;;4.25;73.03;100795.50;5031277;28;20040;-73
2022/03/01 07:05:08;;;;;;;217.37;63.00;;;;;;;4.41;72.27;100806.72;5030284;28;20057;-73
2022/03/01 07:07:35;;;;;;;125.67;37.77;;;;;;;4.71;70.74;100795.19;5029937;28;20030;-73
2022/03/01 07:10:00;;;;;;;19.37;10.43;;;;;;;4.55;71.44;100802.38;5031810;28;20037;-73
2022/03/01 07:12:26;;;;;;;16.40;9.33;;;;;;;4.41;71.73;100795.38;5029876;28;20083;-73
2022/03/01 07:14:53;;;;;;;14.47;8.43;;;;;;;4.36;72.32;100803.53;5011842;28;20030;-73
2022/03/01 07:17:19;;;;;;;16.40;8.50;;;;;;;4.65;71.44;100803.47;5011511;28;20071;-73
2022/03/01 07:19:45;;;;;;;16.07;8.73;;;;;;;4.65;71.54;100801.69;5028809;28;20061;-73
2022/03/01 07:22:10;;;;;;;14.50;9.40;;;;;;;4.94;70.73;100796.31;5028540;28;20049;-73
2022/03/01 07:24:35;;;;;;;13.93;8.27;;;;;;;5.05;70.08;100792.06;5030984;28;20104;-73
2022/03/01 07:27:01;;;;;;;14.50;9.37;;;;;;;5.34;68.97;100794.56;5030688;28;20076;-73
2022/03/01 07:29:27;;;;;;;27.97;12.87;;;;;;;5.43;68.41;100792.16;5028885;28;20041;-73
2022/03/01 07:31:53;;;;;;;33.70;15.33;;;;;;;5.72;67.80;100790.16;5031123;28;20034;-73
2022/03/01 07:34:18;;;;;;;38.20;16.33;;;;;;;5.92;66.66;100785.34;5025850;28;20088;-73
2022/03/01 07:36:44;;;;;;;31.27;14.57;;;;;;;6.23;66.31;100792.75;5026768;28;20041;-73
2022/03/01 07:39:09;;;;;;;28.57;14.90;;;;;;;6.48;65.99;100783.97;5025131;28;20237;-73
2022/03/01 07:41:35;;;;;;;25.02;14.15;;;;;;;6.98;64.04;100788.19;5027002;28;20037;-73
2022/03/01 07:44:00;;;;;;;30.58;14.90;;;;;;;7.11;62.81;100793.38;5042095;28;20029;-73
2022/03/01 07:46:26;;;;;;;30.83;14.88;;;;;;;7.09;64.06;100786.53;5026739;28;20371;-73
2022/03/01 07:48:51;;;;;;;26.45;14.25;;;;;;;6.84;63.52;100791.00;5026581;28;20034;-73
2022/03/01 07:51:17;;;;;;;25.20;14.30;;;;;;;6.81;63.90;100796.47;5026047;28;20102;-73
2022/03/01 07:53:43;;;;;;;33.20;13.98;;;;;;;6.94;63.55;100799.06;5027388;28;20160;-73
2022/03/01 07:56:08;;;;;;;28.17;14.13;;;;;;;6.38;63.80;100796.13;5022253;28;20024;-73
2022/03/01 07:58:34;;;;;;;31.63;15.23;;;;;;;6.43;64.25;100807.16;5025986;28;20223;-73
2022/03/01 08:00:59;;;;;;;24.92;14.70;;;;;;;6.44;63.71;100805.38;5025770;28;20254;-73
2022/03/01 08:03:25;;;;;;;28.13;16.30;;;;;;;6.47;65.86;100810.41;5038194;28;20033;-73
2022/03/01 08:05:51;;;;;;;27.42;15.30;;;;;;;6.45;65.31;100805.25;5025002;28;20021;-73
2022/03/01 08:08:17;;;;;;;25.92;12.90;;;;;;;6.05;66.72;100802.78;5025685;28;20030;-73
2022/03/01 08:10:42;;;;;;;23.63;12.35;;;;;;;5.84;67.73;100821.81;5025403;28;20080;-73
2022/03/01 08:13:08;;;;;;;21.42;11.40;;;;;;;5.76;68.36;100817.91;5023496;28;20131;-73
2022/03/01 08:15:33;;;;;;;23.35;10.77;;;;;;;5.93;67.22;100805.44;5024660;28;20117;-73
2022/03/01 08:17:59;;;;;;;21.83;10.68;;;;;;;6.13;66.70;100799.63;5024877;28;20030;-73
2022/03/01 08:20:25;;;;;;;17.10;9.25;;;;;;;5.94;68.07;100821.09;5020713;28;20235;-73
2022/03/01 08:22:51;;;;;;;22.33;9.77;;;;;;;6.00;68.16;100815.41;5024165;28;20037;-73
2022/03/01 08:25:17;;;;;;;22.73;9.77;;;;;;;6.07;67.60;100808.78;5024107;28;20029;-73
2022/03/01 08:27:43;;;;;;;23.67;10.32;;;;;;;6.05;66.84;100818.56;5025575;28;20037;-73
2022/03/01 08:30:09;;;;;;;20.30;10.20;;;;;;;5.75;66.68;100824.13;5027731;28;20441;-73
2022/03/01 08:32:34;;;;;;;22.48;12.25;;;;;;;6.05;65.80;100823.81;5025714;28;20366;-73
2022/03/01 08:34:59;;;;;;;28.90;14.97;;;;;;;5.98;66.38;100819.94;5029173;28;20045;-73
2022/03/01 08:37:26;;;;;;;22.53;12.10;;;;;;;5.74;66.81;100818.97;5028129;28;20140;-73
2022/03/01 08:39:52;;;;;;;27.02;13.43;;;;;;;5.82;66.44;100821.91;5026511;28;20029;-73
2022/03/01 08:42:18;;;;;;;25.95;14.38;;;;;;;5.79;67.06;100819.50;5028641;28;20029;-73
2022/03/01 08:44:44;;;;;;;28.23;14.33;;;;;;;6.08;67.66;100820.97;5010239;28;20036;-73
2022/03/01 08:47:09;;;;;;;35.95;17.38;;;;;;;6.02;67.35;100816.16;5029582;28;20097;-73
2022/03/01 08:49:34;;;;;;;30.70;15.43;;;;;;;6.10;67.92;100812.97;5028583;28;20335;-73
2022/03/01 08:52:00;;;;;;;25.92;14.15;;;;;;;6.08;68.59;100812.25;5026225;28;20084;-74
2022/03/01 08:54:25;;;;;;;30.48;16.40;;;;;;;6.19;68.33;100822.84;5029075;28;20033;-73
2022/03/01 08:56:51;;;;;;;51.08;24.80;;;;;;;6.38;66.96;100809.28;5029620;28;20022;-73
2022/03/01 08:59:17;;;;;;;32.03;17.42;;;;;;;6.50;67.47;100818.91;5028203;28;20053;-73
2022/03/01 09:01:43;;;;;;;32.03;16.27;;;;;;;6.46;67.43;100816.63;5025017;28;20168;-73
2022/03/01 09:04:13;;;;;;;24.98;13.68;;;;;;;6.73;65.96;100807.56;5023724;28;20057;-73
2022/03/01 09:06:38;;;;;;;31.10;16.00;;;;;;;6.88;64.19;100805.63;5023517;28;20025;-73
2022/03/01 09:09:03;;;;;;;30.98;15.13;;;;;;;7.13;63.52;100819.59;5022701;28;20215;-74
2022/03/01 09:11:29;;;;;;;33.53;14.57;;;;;;;6.90;64.18;100823.94;5024418;28;20085;-73
2022/03/01 09:13:54;;;;;;;38.50;16.75;;;;;;;7.20;63.38;100818.19;5023157;28;21066;-73
2022/03/01 09:16:20;;;;;;;39.22;18.77;;;;;;;7.11;65.06;100819.72;5023728;28;20087;-73
2022/03/01 09:18:45;;;;;;;30.15;14.68;;;;;;;7.39;64.28;100820.31;5024480;28;20432;-74
2022/03/01 09:21:11;;;;;;;28.30;13.88;;;;;;;7.33;64.04;100813.72;5023034;28;20759;-73
2022/03/01 09:23:36;;;;;;;27.00;14.07;;;;;;;7.36;64.03;100824.03;5022882;28;20038;-73
2022/03/01 09:26:02;;;;;;;37.85;15.05;;;;;;;7.33;64.05;100826.88;5022901;28;20233;-73
2022/03/01 09:28:28;;;;;;;23.52;13.43;;;;;;;7.34;64.28;100818.03;5029597;28;20026;-73
2022/03/01 09:30:53;;;;;;;27.13;14.75;;;;;;;7.55;63.56;100823.47;5038404;28;20017;-73
2022/03/01 09:33:19;;;;;;;22.92;13.13;;;;;;;7.74;63.71;100815.84;5022983;28;20343;-73
2022/03/01 09:35:46;;;;;;;24.77;13.77;;;;;;;7.88;61.86;100809.50;5023015;28;20022;-74
2022/03/01 09:38:12;;;;;;;36.55;15.15;;;;;;;7.71;62.03;100813.44;5029508;28;20034;-73
2022/03/01 09:40:37;;;;;;;26.42;14.55;;;;;;;8.10;61.03;100817.41;5022528;28;20029;-73
2022/03/01 09:43:03;;;;;;;32.33;13.32;;;;;;;8.22;60.95;100808.53;5038985;28;20224;-73
2022/03/01 09:45:29;;;;;;;26.00;13.60;;;;;;;8.24;60.65;100817.19;5023993;28;20046;-73
2022/03/01 09:47:54;;;;;;;24.25;12.75;;;;;;;8.26;58.56;100817.06;5023889;28;20240;-74
2022/03/01 09:50:27;;;;;;;19.02;10.20;;;;;;;8.15;57.52;100817.91;5023034;28;20030;-72
2022/03/01 09:52:54;;;;;;;17.15;9.13;;;;;;;8.06;55.78;100820.41;5022460;28;20030;-73
2022/03/01 09:55:20;;;;;;;15.63;8.40;;;;;;;7.99;57.84;100818.25;5022604;28;20053;-73
2022/03/01 09:57:46;;;;;;;13.57;8.75;;;;;;;7.83;57.85;100804.59;5031156;28;20072;-73
2022/03/01 10:00:12;;;;;;;13.30;7.70;;;;;;;7.97;56.87;100807.00;5002471;28;20244;-73
2022/03/01 10:02:40;;;;;;;17.20;9.45;;;;;;;7.97;58.36;100799.06;5004645;28;20026;-73
2022/03/01 10:05:06;;;;;;;13.73;8.27;;;;;;;8.05;58.18;100785.28;5003565;28;20326;-74
2022/03/01 10:07:32;;;;;;;6.15;3.92;;;;;;;8.14;50.50;100794.28;5009361;28;20060;-74
2022/03/01 10:10:09;;;;;;;8.45;5.60;;;;;;;8.33;50.17;100770.81;5021429;28;20037;-73
2022/03/01 10:12:35;;;;;;;6.43;4.47;;;;;;;8.72;51.38;100785.25;5006247;28;20063;-73
2022/03/01 10:15:07;;;;;;;9.60;5.95;;;;;;;8.23;51.51;100786.47;5003772;28;20030;-73
2022/03/01 10:17:38;;;;;;;10.30;6.53;;;;;;;8.12;53.83;100777.72;5005605;28;20322;-73
2022/03/01 10:20:06;;;;;;;12.43;6.75;;;;;;;8.13;50.95;100780.25;5006096;28;20033;-73
2022/03/01 10:22:32;;;;;;;10.52;6.75;;;;;;;8.36;50.66;100764.44;5004428;28;20037;-73
2022/03/01 10:25:03;;;;;;;13.35;7.13;;;;;;;8.38;52.42;100759.88;5021716;28;20041;-73
2022/03/01 10:27:29;;;;;;;14.63;7.00;;;;;;;8.08;50.64;100765.75;5010057;28;20060;-74
2022/03/01 10:29:55;;;;;;;13.10;7.15;;;;;;;8.21;49.65;100759.38;5006018;28;20057;-74
2022/03/01 10:32:20;;;;;;;16.73;8.13;;;;;;;8.07;50.76;100746.44;5007339;28;20324;-73
2022/03/01 10:35:07;;;;;;;12.65;7.47;;;;;;;8.28;52.69;100755.28;5005523;28;20109;-73
2022/03/01 10:37:37;;;;;;;10.00;6.07;;;;;;;8.53;50.78;100750.72;5007430;28;20030;-73
2022/03/01 10:40:23;;;;;;;12.48;6.53;;;;;;;8.58;49.14;100745.91;5006138;28;20100;-74
2022/03/01 10:43:03;;;;;;;11.60;6.85;;;;;;;8.48;49.23;100739.72;5014020;28;20053;-73
2022/03/01 10:45:32;;;;;;;11.23;6.63;;;;;;;8.91;47.05;100744.94;5006668;28;20032;-74
2022/03/01 10:47:57;;;;;;;11.35;7.30;;;;;;;8.78;50.73;100741.66;5006599;28;20030;-74
2022/03/01 10:50:23;;;;;;;14.60;7.70;;;;;;;8.68;52.03;100730.16;5008041;28;20038;-74
2022/03/01 10:52:49;;;;;;;9.25;6.55;;;;;;;8.32;50.76;100732.13;5005648;28;20045;-74
2022/03/01 10:55:32;;;;;;;10.57;6.03;;;;;;;8.45;49.66;100724.13;5007230;28;20033;-74
2022/03/01 10:58:05;;;;;;;11.60;7.18;;;;;;;8.05;54.07;100713.22;5014677;28;20079;-73
2022/03/01 11:00:32;;;;;;;11.32;6.90;;;;;;;7.32;53.65;100725.94;5017498;28;20029;-73
2022/03/01 11:02:57;;;;;;;6.82;4.60;;;;;;;7.35;51.21;100730.13;5029271;28;20493;-73
2022/03/01 11:05:23;;;;;;;7.60;5.00;;;;;;;7.26;49.63;100715.00;5027429;28;20044;-73
2022/03/01 11:07:50;;;;;;;7.65;5.38;;;;;;;7.68;50.70;100724.03;5030394;28;20041;-73
2022/03/01 11:10:18;;;;;;;8.55;5.32;;;;;;;7.40;51.24;100719.25;5030047;28;20137;-73
2022/03/01 11:12:46;;;;;;;9.25;5.70;;;;;;;7.38;50.25;100721.16;5027997;28;20089;-73
2022/03/01 11:15:23;;;;;;;7.15;4.75;;;;;;;7.29;51.79;100713.00;5030144;28;20354;-73
2022/03/01 11:18:04;;;;;;;6.80;4.43;;;;;;;7.31;51.69;100712.88;5028671;28;20111;-73